Estación Meteorológica Peña el Pijo (Robertgarden) [ 01/30/23 14:57:52 CET ]

Fecha Hora Presion(HPa) Temp (°C) Humedad % Rocio (°C) Viento ( m/s) Direccion Lluvia 1Hora(mm) Lluvia 24H(mm) LLuvia Total(mm)
2012-Jun-24 01:01:16 1017.800 18.2 66 11.7         167.83
2012-Jun-24 02:01:17 1017.800 16.4 71 11.2         167.83
2012-Jun-24 03:04:13 1017.600 15.3 75 10.9         167.83
2012-Jun-24 04:01:14 1017.400 14.8 75 10.4         167.83
2012-Jun-24 05:01:14 1017.300 14.4 77 10.4         167.83
2012-Jun-24 06:01:14 1017.200 14.4 77 10.4         167.83
2012-Jun-24 07:01:18 1017.200 13.9 79 10.3         167.83
2012-Jun-24 08:01:14 1017.000 15.8 79 12.2         167.83
2012-Jun-24 09:01:17 1017.000 22.7 64 15.5         167.83
2012-Jun-24 10:01:17 1016.900 29.3 46 16.5         167.83
2012-Jun-24 11:01:13 1016.800 32.9 33 14.4         167.83
2012-Jun-24 12:01:14 1016.600 36.1 27 13.9         167.83
2012-Jun-24 13:01:14 1016.500 37.0 25 13.5 0.9 ENE     167.83
2012-Jun-24 14:01:17 1016.200 37.7 24 13.5         167.83
2012-Jun-24 15:01:11 1015.600 38.7 22 13.0         167.83
2012-Jun-24 16:01:13 1015.200 38.9 21 12.6         167.83
2012-Jun-24 17:01:16 1014.800 39.9 14 6.7         167.83
2012-Jun-24 18:01:14 1014.700 39.8 13 5.6         167.83
2012-Jun-24 19:01:16 1014.400 38.7 13 4.7         167.83
2012-Jun-24 20:01:13 1014.400 35.9 12 1.5         167.83
2012-Jun-24 21:01:14 1015.100 30.5 28 9.8         167.83
2012-Jun-24 22:01:12 1015.700 27.5 35 10.6         167.83
2012-Jun-24 23:01:14 1016.600 24.3 41 10.2         167.83

Temperatura Máxima:39°    Temperatura Mínima:13°
Presión Máxima:1017.800 Hpa    Presión Mínima:1014.400 Hpa


Volver